sensor_id;sensor_type;location;lat;lon;timestamp;P1;durP1;ratioP1;P2;durP2;ratioP2
7669;SDS011;3877;42.562;27.636;2024-01-25T00:02:27;20.60;;;12.20;;
7669;SDS011;3877;42.562;27.636;2024-01-25T00:04:55;21.27;;;10.80;;
7669;SDS011;3877;42.562;27.636;2024-01-25T00:07:22;19.37;;;11.23;;
7669;SDS011;3877;42.562;27.636;2024-01-25T00:09:51;18.63;;;11.17;;
7669;SDS011;3877;42.562;27.636;2024-01-25T00:12:18;21.07;;;11.63;;
7669;SDS011;3877;42.562;27.636;2024-01-25T00:14:46;16.17;;;10.60;;
7669;SDS011;3877;42.562;27.636;2024-01-25T00:17:14;20.23;;;11.50;;
7669;SDS011;3877;42.562;27.636;2024-01-25T00:19:41;15.90;;;10.10;;
7669;SDS011;3877;42.562;27.636;2024-01-25T00:22:07;14.97;;;9.63;;
7669;SDS011;3877;42.562;27.636;2024-01-25T00:24:35;18.53;;;10.40;;
7669;SDS011;3877;42.562;27.636;2024-01-25T00:27:04;18.73;;;11.57;;
7669;SDS011;3877;42.562;27.636;2024-01-25T00:29:33;19.03;;;9.97;;
7669;SDS011;3877;42.562;27.636;2024-01-25T00:32:02;18.67;;;11.73;;
7669;SDS011;3877;42.562;27.636;2024-01-25T00:34:32;22.43;;;12.13;;
7669;SDS011;3877;42.562;27.636;2024-01-25T00:37:02;17.93;;;10.97;;
7669;SDS011;3877;42.562;27.636;2024-01-25T00:39:30;19.87;;;11.47;;
7669;SDS011;3877;42.562;27.636;2024-01-25T00:42:00;19.60;;;11.00;;
7669;SDS011;3877;42.562;27.636;2024-01-25T00:44:32;20.00;;;12.13;;
7669;SDS011;3877;42.562;27.636;2024-01-25T00:47:00;18.73;;;11.67;;
7669;SDS011;3877;42.562;27.636;2024-01-25T00:49:28;17.60;;;11.27;;
7669;SDS011;3877;42.562;27.636;2024-01-25T00:51:58;15.70;;;10.30;;
7669;SDS011;3877;42.562;27.636;2024-01-25T00:54:27;19.83;;;11.00;;
7669;SDS011;3877;42.562;27.636;2024-01-25T00:56:55;17.63;;;10.33;;
7669;SDS011;3877;42.562;27.636;2024-01-25T00:59:23;16.93;;;10.03;;
7669;SDS011;3877;42.562;27.636;2024-01-25T01:01:53;17.77;;;11.37;;
7669;SDS011;3877;42.562;27.636;2024-01-25T01:04:22;19.27;;;10.63;;
7669;SDS011;3877;42.562;27.636;2024-01-25T01:06:50;17.53;;;10.10;;
7669;SDS011;3877;42.562;27.636;2024-01-25T01:09:18;17.73;;;11.33;;
7669;SDS011;3877;42.562;27.636;2024-01-25T01:11:45;21.73;;;11.00;;
7669;SDS011;3877;42.562;27.636;2024-01-25T01:14:13;20.17;;;11.30;;
7669;SDS011;3877;42.562;27.636;2024-01-25T01:16:41;19.50;;;12.37;;
7669;SDS011;3877;42.562;27.636;2024-01-25T01:19:09;20.37;;;12.53;;
7669;SDS011;3877;42.562;27.636;2024-01-25T01:21:37;24.70;;;12.87;;
7669;SDS011;3877;42.562;27.636;2024-01-25T01:24:09;19.53;;;11.93;;
7669;SDS011;3877;42.562;27.636;2024-01-25T01:26:36;21.43;;;12.50;;
7669;SDS011;3877;42.562;27.636;2024-01-25T01:29:07;19.37;;;11.50;;
7669;SDS011;3877;42.562;27.636;2024-01-25T01:31:34;18.37;;;10.70;;
7669;SDS011;3877;42.562;27.636;2024-01-25T01:34:02;21.17;;;11.87;;
7669;SDS011;3877;42.562;27.636;2024-01-25T01:36:31;18.30;;;12.27;;
7669;SDS011;3877;42.562;27.636;2024-01-25T01:38:58;18.13;;;11.37;;
7669;SDS011;3877;42.562;27.636;2024-01-25T01:41:33;18.50;;;11.37;;
7669;SDS011;3877;42.562;27.636;2024-01-25T01:44:00;16.80;;;11.63;;
7669;SDS011;3877;42.562;27.636;2024-01-25T01:46:31;20.57;;;11.93;;
7669;SDS011;3877;42.562;27.636;2024-01-25T01:49:00;20.20;;;11.07;;
7669;SDS011;3877;42.562;27.636;2024-01-25T01:51:28;17.90;;;11.60;;
7669;SDS011;3877;42.562;27.636;2024-01-25T01:53:58;22.40;;;10.17;;
7669;SDS011;3877;42.562;27.636;2024-01-25T01:56:27;17.80;;;9.83;;
7669;SDS011;3877;42.562;27.636;2024-01-25T01:58:56;19.37;;;9.90;;
7669;SDS011;3877;42.562;27.636;2024-01-25T02:01:25;16.40;;;10.93;;
7669;SDS011;3877;42.562;27.636;2024-01-25T02:03:52;14.77;;;9.30;;
7669;SDS011;3877;42.562;27.636;2024-01-25T02:06:20;16.80;;;11.23;;
7669;SDS011;3877;42.562;27.636;2024-01-25T02:08:48;18.03;;;10.87;;
7669;SDS011;3877;42.562;27.636;2024-01-25T02:11:19;22.53;;;10.70;;
7669;SDS011;3877;42.562;27.636;2024-01-25T02:13:47;17.30;;;10.30;;
7669;SDS011;3877;42.562;27.636;2024-01-25T02:16:17;16.53;;;9.77;;
7669;SDS011;3877;42.562;27.636;2024-01-25T02:18:45;14.33;;;9.07;;
7669;SDS011;3877;42.562;27.636;2024-01-25T02:21:13;13.90;;;8.57;;
7669;SDS011;3877;42.562;27.636;2024-01-25T02:23:42;13.60;;;8.17;;
7669;SDS011;3877;42.562;27.636;2024-01-25T02:26:10;12.50;;;8.30;;
7669;SDS011;3877;42.562;27.636;2024-01-25T02:28:37;14.93;;;7.90;;
7669;SDS011;3877;42.562;27.636;2024-01-25T02:31:04;15.60;;;8.17;;
7669;SDS011;3877;42.562;27.636;2024-01-25T02:33:32;15.13;;;8.43;;
7669;SDS011;3877;42.562;27.636;2024-01-25T02:35:59;15.17;;;8.33;;
7669;SDS011;3877;42.562;27.636;2024-01-25T02:38:27;14.87;;;8.23;;
7669;SDS011;3877;42.562;27.636;2024-01-25T02:40:56;15.30;;;9.30;;
7669;SDS011;3877;42.562;27.636;2024-01-25T02:43:23;16.47;;;9.27;;
7669;SDS011;3877;42.562;27.636;2024-01-25T02:45:50;13.73;;;9.17;;
7669;SDS011;3877;42.562;27.636;2024-01-25T02:48:18;15.33;;;8.93;;
7669;SDS011;3877;42.562;27.636;2024-01-25T02:50:45;17.07;;;9.50;;
7669;SDS011;3877;42.562;27.636;2024-01-25T02:53:13;15.70;;;8.93;;
7669;SDS011;3877;42.562;27.636;2024-01-25T02:55:41;16.30;;;9.00;;
7669;SDS011;3877;42.562;27.636;2024-01-25T02:58:09;17.20;;;8.37;;
7669;SDS011;3877;42.562;27.636;2024-01-25T03:00:37;14.87;;;8.97;;
7669;SDS011;3877;42.562;27.636;2024-01-25T03:03:05;17.10;;;9.07;;
7669;SDS011;3877;42.562;27.636;2024-01-25T03:05:32;15.53;;;9.40;;
7669;SDS011;3877;42.562;27.636;2024-01-25T03:08:00;16.87;;;10.10;;
7669;SDS011;3877;42.562;27.636;2024-01-25T03:10:27;14.97;;;9.77;;
7669;SDS011;3877;42.562;27.636;2024-01-25T03:12:56;15.80;;;8.90;;
7669;SDS011;3877;42.562;27.636;2024-01-25T03:15:25;16.13;;;9.70;;
7669;SDS011;3877;42.562;27.636;2024-01-25T03:17:52;16.00;;;9.30;;
7669;SDS011;3877;42.562;27.636;2024-01-25T03:20:20;18.97;;;9.77;;
7669;SDS011;3877;42.562;27.636;2024-01-25T03:22:47;13.80;;;8.77;;
7669;SDS011;3877;42.562;27.636;2024-01-25T03:25:15;16.17;;;9.13;;
7669;SDS011;3877;42.562;27.636;2024-01-25T03:27:42;19.27;;;9.73;;
7669;SDS011;3877;42.562;27.636;2024-01-25T03:30:10;17.63;;;10.10;;
7669;SDS011;3877;42.562;27.636;2024-01-25T03:32:40;15.00;;;9.40;;
7669;SDS011;3877;42.562;27.636;2024-01-25T03:35:07;14.03;;;9.43;;
7669;SDS011;3877;42.562;27.636;2024-01-25T03:37:35;16.93;;;10.17;;
7669;SDS011;3877;42.562;27.636;2024-01-25T03:40:03;16.63;;;9.17;;
7669;SDS011;3877;42.562;27.636;2024-01-25T03:42:31;16.60;;;9.73;;
7669;SDS011;3877;42.562;27.636;2024-01-25T03:44:59;16.90;;;9.37;;
7669;SDS011;3877;42.562;27.636;2024-01-25T03:47:27;16.00;;;9.63;;
7669;SDS011;3877;42.562;27.636;2024-01-25T03:49:56;14.47;;;7.90;;
7669;SDS011;3877;42.562;27.636;2024-01-25T03:52:27;20.60;;;9.70;;
7669;SDS011;3877;42.562;27.636;2024-01-25T03:54:55;17.77;;;10.27;;
7669;SDS011;3877;42.562;27.636;2024-01-25T03:57:23;13.57;;;8.60;;
7669;SDS011;3877;42.562;27.636;2024-01-25T03:59:50;16.97;;;10.53;;
7669;SDS011;3877;42.562;27.636;2024-01-25T04:02:18;16.10;;;9.17;;
7669;SDS011;3877;42.562;27.636;2024-01-25T04:04:45;16.47;;;9.80;;
7669;SDS011;3877;42.562;27.636;2024-01-25T04:07:14;14.30;;;9.00;;
7669;SDS011;3877;42.562;27.636;2024-01-25T04:09:42;13.67;;;7.87;;
7669;SDS011;3877;42.562;27.636;2024-01-25T04:12:10;15.73;;;9.37;;
7669;SDS011;3877;42.562;27.636;2024-01-25T04:14:38;16.50;;;10.73;;
7669;SDS011;3877;42.562;27.636;2024-01-25T04:17:06;15.30;;;9.83;;
7669;SDS011;3877;42.562;27.636;2024-01-25T04:19:33;17.97;;;10.77;;
7669;SDS011;3877;42.562;27.636;2024-01-25T04:22:02;20.83;;;10.70;;
7669;SDS011;3877;42.562;27.636;2024-01-25T04:24:32;15.90;;;10.30;;
7669;SDS011;3877;42.562;27.636;2024-01-25T04:26:59;18.13;;;11.20;;
7669;SDS011;3877;42.562;27.636;2024-01-25T04:29:27;15.07;;;10.23;;
7669;SDS011;3877;42.562;27.636;2024-01-25T04:31:55;18.43;;;10.70;;
7669;SDS011;3877;42.562;27.636;2024-01-25T04:34:22;15.10;;;10.33;;
7669;SDS011;3877;42.562;27.636;2024-01-25T04:36:50;16.03;;;10.47;;
7669;SDS011;3877;42.562;27.636;2024-01-25T04:39:18;17.00;;;10.17;;
7669;SDS011;3877;42.562;27.636;2024-01-25T04:41:46;21.27;;;11.33;;
7669;SDS011;3877;42.562;27.636;2024-01-25T04:44:14;17.80;;;9.53;;
7669;SDS011;3877;42.562;27.636;2024-01-25T04:46:42;14.43;;;9.87;;
7669;SDS011;3877;42.562;27.636;2024-01-25T04:49:09;18.97;;;10.83;;
7669;SDS011;3877;42.562;27.636;2024-01-25T04:51:37;21.80;;;11.97;;
7669;SDS011;3877;42.562;27.636;2024-01-25T04:54:04;17.20;;;10.80;;
7669;SDS011;3877;42.562;27.636;2024-01-25T04:56:32;21.27;;;11.00;;
7669;SDS011;3877;42.562;27.636;2024-01-25T04:59:01;19.80;;;11.93;;
7669;SDS011;3877;42.562;27.636;2024-01-25T05:01:29;20.87;;;12.20;;
7669;SDS011;3877;42.562;27.636;2024-01-25T05:03:57;17.10;;;10.73;;
7669;SDS011;3877;42.562;27.636;2024-01-25T05:06:24;17.83;;;10.30;;
7669;SDS011;3877;42.562;27.636;2024-01-25T05:08:51;15.97;;;10.33;;
7669;SDS011;3877;42.562;27.636;2024-01-25T05:11:19;16.57;;;10.37;;
7669;SDS011;3877;42.562;27.636;2024-01-25T05:13:46;22.30;;;11.30;;
7669;SDS011;3877;42.562;27.636;2024-01-25T05:16:15;19.37;;;11.17;;
7669;SDS011;3877;42.562;27.636;2024-01-25T05:18:42;19.87;;;12.33;;
7669;SDS011;3877;42.562;27.636;2024-01-25T05:21:10;14.40;;;8.13;;
7669;SDS011;3877;42.562;27.636;2024-01-25T05:23:37;19.70;;;11.13;;
7669;SDS011;3877;42.562;27.636;2024-01-25T05:26:05;18.97;;;10.37;;
7669;SDS011;3877;42.562;27.636;2024-01-25T05:28:33;17.33;;;9.90;;
7669;SDS011;3877;42.562;27.636;2024-01-25T05:31:00;20.03;;;11.23;;
7669;SDS011;3877;42.562;27.636;2024-01-25T05:33:29;16.53;;;10.53;;
7669;SDS011;3877;42.562;27.636;2024-01-25T05:35:57;17.53;;;10.67;;
7669;SDS011;3877;42.562;27.636;2024-01-25T05:38:24;18.03;;;10.97;;
7669;SDS011;3877;42.562;27.636;2024-01-25T05:40:52;18.07;;;9.50;;
7669;SDS011;3877;42.562;27.636;2024-01-25T05:43:19;12.77;;;7.97;;
7669;SDS011;3877;42.562;27.636;2024-01-25T05:45:47;16.80;;;10.47;;
7669;SDS011;3877;42.562;27.636;2024-01-25T05:48:14;16.27;;;9.70;;
7669;SDS011;3877;42.562;27.636;2024-01-25T05:50:43;17.20;;;10.00;;
7669;SDS011;3877;42.562;27.636;2024-01-25T05:53:11;32.93;;;10.17;;
7669;SDS011;3877;42.562;27.636;2024-01-25T05:55:38;20.43;;;8.80;;
7669;SDS011;3877;42.562;27.636;2024-01-25T05:58:06;14.97;;;8.87;;
7669;SDS011;3877;42.562;27.636;2024-01-25T06:00:36;14.70;;;9.60;;
7669;SDS011;3877;42.562;27.636;2024-01-25T06:03:04;17.13;;;9.60;;
7669;SDS011;3877;42.562;27.636;2024-01-25T06:05:31;16.50;;;9.53;;
7669;SDS011;3877;42.562;27.636;2024-01-25T06:08:00;15.50;;;10.23;;
7669;SDS011;3877;42.562;27.636;2024-01-25T06:10:30;19.60;;;9.57;;
7669;SDS011;3877;42.562;27.636;2024-01-25T06:12:58;13.53;;;9.80;;
7669;SDS011;3877;42.562;27.636;2024-01-25T06:15:26;15.03;;;9.03;;
7669;SDS011;3877;42.562;27.636;2024-01-25T06:17:54;19.53;;;9.90;;
7669;SDS011;3877;42.562;27.636;2024-01-25T06:20:24;15.90;;;8.93;;
7669;SDS011;3877;42.562;27.636;2024-01-25T06:22:51;16.03;;;9.57;;
7669;SDS011;3877;42.562;27.636;2024-01-25T06:25:20;15.90;;;9.87;;
7669;SDS011;3877;42.562;27.636;2024-01-25T06:27:49;17.93;;;11.27;;
7669;SDS011;3877;42.562;27.636;2024-01-25T06:30:16;20.63;;;12.33;;
7669;SDS011;3877;42.562;27.636;2024-01-25T06:32:45;24.23;;;11.70;;
7669;SDS011;3877;42.562;27.636;2024-01-25T06:35:13;30.73;;;13.00;;
7669;SDS011;3877;42.562;27.636;2024-01-25T06:37:41;25.50;;;13.30;;
7669;SDS011;3877;42.562;27.636;2024-01-25T06:40:08;29.03;;;14.73;;
7669;SDS011;3877;42.562;27.636;2024-01-25T06:42:40;19.27;;;11.20;;
7669;SDS011;3877;42.562;27.636;2024-01-25T06:45:08;16.93;;;10.37;;
7669;SDS011;3877;42.562;27.636;2024-01-25T06:47:38;22.17;;;13.37;;
7669;SDS011;3877;42.562;27.636;2024-01-25T06:50:06;16.40;;;10.47;;
7669;SDS011;3877;42.562;27.636;2024-01-25T06:52:34;19.27;;;11.47;;
7669;SDS011;3877;42.562;27.636;2024-01-25T06:55:01;16.10;;;10.27;;
7669;SDS011;3877;42.562;27.636;2024-01-25T06:57:29;17.07;;;10.60;;
7669;SDS011;3877;42.562;27.636;2024-01-25T07:00:01;18.70;;;11.43;;
7669;SDS011;3877;42.562;27.636;2024-01-25T07:02:29;18.07;;;11.23;;
7669;SDS011;3877;42.562;27.636;2024-01-25T07:04:56;15.33;;;9.83;;
7669;SDS011;3877;42.562;27.636;2024-01-25T07:07:24;16.97;;;9.93;;
7669;SDS011;3877;42.562;27.636;2024-01-25T07:09:52;17.53;;;10.77;;
7669;SDS011;3877;42.562;27.636;2024-01-25T07:12:23;15.40;;;9.90;;
7669;SDS011;3877;42.562;27.636;2024-01-25T07:14:50;21.53;;;11.67;;
7669;SDS011;3877;42.562;27.636;2024-01-25T07:17:19;19.00;;;10.47;;
7669;SDS011;3877;42.562;27.636;2024-01-25T07:19:46;19.83;;;11.20;;
7669;SDS011;3877;42.562;27.636;2024-01-25T07:22:14;15.77;;;8.67;;
7669;SDS011;3877;42.562;27.636;2024-01-25T07:24:46;19.40;;;11.43;;
7669;SDS011;3877;42.562;27.636;2024-01-25T07:27:14;16.97;;;10.57;;
7669;SDS011;3877;42.562;27.636;2024-01-25T07:29:44;18.43;;;10.40;;
7669;SDS011;3877;42.562;27.636;2024-01-25T07:32:12;20.17;;;12.17;;
7669;SDS011;3877;42.562;27.636;2024-01-25T07:34:41;18.17;;;11.97;;
7669;SDS011;3877;42.562;27.636;2024-01-25T07:37:09;15.47;;;11.00;;
7669;SDS011;3877;42.562;27.636;2024-01-25T07:39:36;17.07;;;11.77;;
7669;SDS011;3877;42.562;27.636;2024-01-25T07:42:04;18.43;;;10.20;;
7669;SDS011;3877;42.562;27.636;2024-01-25T07:44:32;22.13;;;11.30;;
7669;SDS011;3877;42.562;27.636;2024-01-25T07:46:59;19.63;;;11.37;;
7669;SDS011;3877;42.562;27.636;2024-01-25T07:49:27;19.47;;;12.07;;
7669;SDS011;3877;42.562;27.636;2024-01-25T07:51:57;18.80;;;12.20;;
7669;SDS011;3877;42.562;27.636;2024-01-25T07:54:24;22.43;;;14.23;;
7669;SDS011;3877;42.562;27.636;2024-01-25T07:56:52;27.33;;;14.70;;
7669;SDS011;3877;42.562;27.636;2024-01-25T07:59:19;21.43;;;13.10;;
7669;SDS011;3877;42.562;27.636;2024-01-25T08:01:49;23.90;;;14.37;;
7669;SDS011;3877;42.562;27.636;2024-01-25T08:04:17;26.90;;;13.67;;
7669;SDS011;3877;42.562;27.636;2024-01-25T08:06:45;25.57;;;13.87;;
7669;SDS011;3877;42.562;27.636;2024-01-25T08:09:14;20.77;;;13.10;;
7669;SDS011;3877;42.562;27.636;2024-01-25T08:11:42;20.17;;;11.43;;
7669;SDS011;3877;42.562;27.636;2024-01-25T08:14:09;21.27;;;11.77;;
7669;SDS011;3877;42.562;27.636;2024-01-25T08:16:37;20.50;;;11.67;;
7669;SDS011;3877;42.562;27.636;2024-01-25T08:19:05;21.00;;;13.23;;
7669;SDS011;3877;42.562;27.636;2024-01-25T08:21:33;17.73;;;11.07;;
7669;SDS011;3877;42.562;27.636;2024-01-25T08:24:01;16.60;;;9.90;;
7669;SDS011;3877;42.562;27.636;2024-01-25T08:26:30;17.43;;;10.47;;
7669;SDS011;3877;42.562;27.636;2024-01-25T08:29:00;17.00;;;9.63;;
7669;SDS011;3877;42.562;27.636;2024-01-25T08:31:28;21.13;;;10.43;;
7669;SDS011;3877;42.562;27.636;2024-01-25T08:33:59;17.70;;;9.93;;
7669;SDS011;3877;42.562;27.636;2024-01-25T08:36:27;18.03;;;10.37;;
7669;SDS011;3877;42.562;27.636;2024-01-25T08:38:54;19.33;;;11.53;;
7669;SDS011;3877;42.562;27.636;2024-01-25T08:41:21;17.03;;;10.30;;
7669;SDS011;3877;42.562;27.636;2024-01-25T08:43:50;17.30;;;10.70;;
7669;SDS011;3877;42.562;27.636;2024-01-25T08:46:18;17.50;;;9.90;;
7669;SDS011;3877;42.562;27.636;2024-01-25T08:48:45;16.87;;;9.57;;
7669;SDS011;3877;42.562;27.636;2024-01-25T08:51:13;13.57;;;9.73;;
7669;SDS011;3877;42.562;27.636;2024-01-25T08:53:40;13.90;;;9.87;;
7669;SDS011;3877;42.562;27.636;2024-01-25T08:56:08;17.17;;;9.67;;
7669;SDS011;3877;42.562;27.636;2024-01-25T08:58:35;16.63;;;10.17;;
7669;SDS011;3877;42.562;27.636;2024-01-25T09:01:04;18.37;;;9.80;;
7669;SDS011;3877;42.562;27.636;2024-01-25T09:03:32;13.93;;;9.80;;
7669;SDS011;3877;42.562;27.636;2024-01-25T09:05:59;15.27;;;9.30;;
7669;SDS011;3877;42.562;27.636;2024-01-25T09:08:30;17.13;;;9.20;;
7669;SDS011;3877;42.562;27.636;2024-01-25T09:10:58;14.23;;;10.07;;
7669;SDS011;3877;42.562;27.636;2024-01-25T09:13:25;18.93;;;11.30;;
7669;SDS011;3877;42.562;27.636;2024-01-25T09:15:53;22.90;;;13.90;;
7669;SDS011;3877;42.562;27.636;2024-01-25T09:18:22;17.90;;;11.27;;
7669;SDS011;3877;42.562;27.636;2024-01-25T09:20:49;17.33;;;9.77;;
7669;SDS011;3877;42.562;27.636;2024-01-25T09:23:17;16.30;;;9.97;;
7669;SDS011;3877;42.562;27.636;2024-01-25T09:25:45;16.80;;;10.77;;
7669;SDS011;3877;42.562;27.636;2024-01-25T09:28:12;16.03;;;9.97;;
7669;SDS011;3877;42.562;27.636;2024-01-25T09:30:42;18.33;;;10.30;;
7669;SDS011;3877;42.562;27.636;2024-01-25T09:33:09;16.53;;;10.83;;
7669;SDS011;3877;42.562;27.636;2024-01-25T09:35:38;16.43;;;10.50;;
7669;SDS011;3877;42.562;27.636;2024-01-25T09:38:06;15.67;;;10.43;;
7669;SDS011;3877;42.562;27.636;2024-01-25T09:40:33;16.90;;;9.87;;
7669;SDS011;3877;42.562;27.636;2024-01-25T09:43:01;14.20;;;9.37;;
7669;SDS011;3877;42.562;27.636;2024-01-25T09:45:28;15.03;;;9.97;;
7669;SDS011;3877;42.562;27.636;2024-01-25T09:47:58;19.77;;;11.47;;
7669;SDS011;3877;42.562;27.636;2024-01-25T09:50:25;16.53;;;10.30;;
7669;SDS011;3877;42.562;27.636;2024-01-25T09:53:00;14.47;;;9.47;;
7669;SDS011;3877;42.562;27.636;2024-01-25T09:55:30;14.13;;;9.40;;
7669;SDS011;3877;42.562;27.636;2024-01-25T09:58:04;18.33;;;10.57;;
7669;SDS011;3877;42.562;27.636;2024-01-25T10:00:33;17.90;;;11.00;;
7669;SDS011;3877;42.562;27.636;2024-01-25T10:03:00;17.20;;;10.10;;
7669;SDS011;3877;42.562;27.636;2024-01-25T10:05:27;16.33;;;9.73;;
7669;SDS011;3877;42.562;27.636;2024-01-25T10:07:56;18.70;;;10.33;;
7669;SDS011;3877;42.562;27.636;2024-01-25T10:10:31;17.63;;;9.97;;
7669;SDS011;3877;42.562;27.636;2024-01-25T10:13:00;18.47;;;10.13;;
7669;SDS011;3877;42.562;27.636;2024-01-25T10:15:27;14.23;;;9.87;;
7669;SDS011;3877;42.562;27.636;2024-01-25T10:17:55;14.87;;;10.23;;
7669;SDS011;3877;42.562;27.636;2024-01-25T10:20:23;17.43;;;10.30;;
7669;SDS011;3877;42.562;27.636;2024-01-25T10:22:52;13.37;;;9.63;;
7669;SDS011;3877;42.562;27.636;2024-01-25T10:25:19;16.53;;;8.90;;
7669;SDS011;3877;42.562;27.636;2024-01-25T10:27:48;15.90;;;10.23;;
7669;SDS011;3877;42.562;27.636;2024-01-25T10:30:15;16.33;;;9.23;;
7669;SDS011;3877;42.562;27.636;2024-01-25T10:32:43;15.40;;;9.63;;
7669;SDS011;3877;42.562;27.636;2024-01-25T10:35:12;16.00;;;11.17;;
7669;SDS011;3877;42.562;27.636;2024-01-25T10:37:41;18.87;;;11.13;;
7669;SDS011;3877;42.562;27.636;2024-01-25T10:40:09;16.97;;;10.50;;
7669;SDS011;3877;42.562;27.636;2024-01-25T10:42:38;21.10;;;12.00;;
7669;SDS011;3877;42.562;27.636;2024-01-25T10:45:08;17.90;;;11.33;;
7669;SDS011;3877;42.562;27.636;2024-01-25T10:47:36;19.53;;;10.60;;
7669;SDS011;3877;42.562;27.636;2024-01-25T10:50:06;13.17;;;7.30;;
7669;SDS011;3877;42.562;27.636;2024-01-25T10:52:35;11.47;;;6.90;;
7669;SDS011;3877;42.562;27.636;2024-01-25T10:55:04;10.37;;;6.20;;
7669;SDS011;3877;42.562;27.636;2024-01-25T10:57:36;9.33;;;5.60;;
7669;SDS011;3877;42.562;27.636;2024-01-25T11:00:06;12.17;;;6.43;;
7669;SDS011;3877;42.562;27.636;2024-01-25T11:02:37;14.77;;;6.73;;
7669;SDS011;3877;42.562;27.636;2024-01-25T11:05:06;10.07;;;6.47;;
7669;SDS011;3877;42.562;27.636;2024-01-25T11:07:43;15.93;;;7.40;;
7669;SDS011;3877;42.562;27.636;2024-01-25T11:10:16;16.70;;;7.87;;
7669;SDS011;3877;42.562;27.636;2024-01-25T11:12:48;13.70;;;8.23;;
7669;SDS011;3877;42.562;27.636;2024-01-25T11:15:21;12.40;;;7.63;;
7669;SDS011;3877;42.562;27.636;2024-01-25T11:17:53;13.23;;;7.90;;
7669;SDS011;3877;42.562;27.636;2024-01-25T11:20:24;16.20;;;10.00;;
7669;SDS011;3877;42.562;27.636;2024-01-25T11:22:55;16.13;;;9.60;;
7669;SDS011;3877;42.562;27.636;2024-01-25T11:25:26;20.60;;;12.47;;
7669;SDS011;3877;42.562;27.636;2024-01-25T11:27:54;44.20;;;23.60;;
7669;SDS011;3877;42.562;27.636;2024-01-25T11:30:23;15.87;;;8.47;;
7669;SDS011;3877;42.562;27.636;2024-01-25T11:32:52;37.80;;;18.20;;
7669;SDS011;3877;42.562;27.636;2024-01-25T11:35:21;13.07;;;6.90;;
7669;SDS011;3877;42.562;27.636;2024-01-25T11:37:49;13.10;;;6.30;;
7669;SDS011;3877;42.562;27.636;2024-01-25T11:40:18;10.10;;;5.97;;
7669;SDS011;3877;42.562;27.636;2024-01-25T11:42:47;11.00;;;5.80;;
7669;SDS011;3877;42.562;27.636;2024-01-25T11:45:15;12.47;;;4.23;;
7669;SDS011;3877;42.562;27.636;2024-01-25T11:47:45;10.43;;;3.97;;
7669;SDS011;3877;42.562;27.636;2024-01-25T11:50:12;12.10;;;4.63;;
7669;SDS011;3877;42.562;27.636;2024-01-25T11:52:40;9.80;;;4.57;;
7669;SDS011;3877;42.562;27.636;2024-01-25T11:55:08;7.83;;;4.10;;
7669;SDS011;3877;42.562;27.636;2024-01-25T11:57:37;11.07;;;4.37;;
7669;SDS011;3877;42.562;27.636;2024-01-25T12:00:06;24.93;;;8.33;;
7669;SDS011;3877;42.562;27.636;2024-01-25T12:02:35;20.63;;;7.33;;
7669;SDS011;3877;42.562;27.636;2024-01-25T12:05:06;11.27;;;5.10;;
7669;SDS011;3877;42.562;27.636;2024-01-25T12:07:35;18.03;;;7.00;;
7669;SDS011;3877;42.562;27.636;2024-01-25T12:10:04;14.50;;;5.67;;
7669;SDS011;3877;42.562;27.636;2024-01-25T12:12:35;26.13;;;9.37;;
7669;SDS011;3877;42.562;27.636;2024-01-25T12:15:04;22.10;;;7.53;;
7669;SDS011;3877;42.562;27.636;2024-01-25T12:17:32;16.43;;;6.87;;
7669;SDS011;3877;42.562;27.636;2024-01-25T12:20:01;12.70;;;5.57;;
7669;SDS011;3877;42.562;27.636;2024-01-25T12:22:34;12.97;;;5.23;;
7669;SDS011;3877;42.562;27.636;2024-01-25T12:25:02;16.53;;;6.20;;
7669;SDS011;3877;42.562;27.636;2024-01-25T12:27:33;13.23;;;4.80;;
7669;SDS011;3877;42.562;27.636;2024-01-25T12:30:00;13.07;;;4.60;;
7669;SDS011;3877;42.562;27.636;2024-01-25T12:32:29;14.40;;;6.40;;
7669;SDS011;3877;42.562;27.636;2024-01-25T12:34:57;11.63;;;5.23;;
7669;SDS011;3877;42.562;27.636;2024-01-25T12:37:26;13.30;;;4.97;;
7669;SDS011;3877;42.562;27.636;2024-01-25T12:39:55;13.57;;;4.67;;
7669;SDS011;3877;42.562;27.636;2024-01-25T12:42:22;11.50;;;5.07;;
7669;SDS011;3877;42.562;27.636;2024-01-25T12:44:53;8.03;;;4.50;;
7669;SDS011;3877;42.562;27.636;2024-01-25T12:47:22;9.00;;;4.47;;
7669;SDS011;3877;42.562;27.636;2024-01-25T12:49:49;12.63;;;5.13;;
7669;SDS011;3877;42.562;27.636;2024-01-25T12:52:20;18.23;;;6.03;;
7669;SDS011;3877;42.562;27.636;2024-01-25T12:54:48;16.93;;;7.23;;
7669;SDS011;3877;42.562;27.636;2024-01-25T12:57:17;12.57;;;5.30;;
7669;SDS011;3877;42.562;27.636;2024-01-25T12:59:44;11.67;;;4.90;;
7669;SDS011;3877;42.562;27.636;2024-01-25T13:02:12;13.10;;;4.77;;
7669;SDS011;3877;42.562;27.636;2024-01-25T13:04:40;19.87;;;7.60;;
7669;SDS011;3877;42.562;27.636;2024-01-25T13:07:08;16.73;;;7.83;;
7669;SDS011;3877;42.562;27.636;2024-01-25T13:09:35;15.53;;;8.50;;
7669;SDS011;3877;42.562;27.636;2024-01-25T13:12:02;15.20;;;5.77;;
7669;SDS011;3877;42.562;27.636;2024-01-25T13:14:31;16.60;;;7.53;;
7669;SDS011;3877;42.562;27.636;2024-01-25T13:17:02;12.90;;;5.10;;
7669;SDS011;3877;42.562;27.636;2024-01-25T13:19:33;12.20;;;5.57;;
7669;SDS011;3877;42.562;27.636;2024-01-25T13:22:00;16.20;;;5.90;;
7669;SDS011;3877;42.562;27.636;2024-01-25T13:24:28;15.20;;;6.80;;
7669;SDS011;3877;42.562;27.636;2024-01-25T13:26:55;22.30;;;7.87;;
7669;SDS011;3877;42.562;27.636;2024-01-25T13:29:23;18.33;;;6.50;;
7669;SDS011;3877;42.562;27.636;2024-01-25T13:31:52;16.33;;;5.07;;
7669;SDS011;3877;42.562;27.636;2024-01-25T13:34:19;13.43;;;5.43;;
7669;SDS011;3877;42.562;27.636;2024-01-25T13:36:46;10.17;;;5.47;;
7669;SDS011;3877;42.562;27.636;2024-01-25T13:39:14;13.03;;;5.60;;
7669;SDS011;3877;42.562;27.636;2024-01-25T13:41:41;21.17;;;6.57;;
7669;SDS011;3877;42.562;27.636;2024-01-25T13:44:08;17.73;;;5.87;;
7669;SDS011;3877;42.562;27.636;2024-01-25T13:46:36;16.97;;;7.20;;
7669;SDS011;3877;42.562;27.636;2024-01-25T13:49:05;19.30;;;7.30;;
7669;SDS011;3877;42.562;27.636;2024-01-25T13:51:32;14.33;;;7.63;;
7669;SDS011;3877;42.562;27.636;2024-01-25T13:53:59;18.23;;;6.53;;
7669;SDS011;3877;42.562;27.636;2024-01-25T13:56:27;15.73;;;7.23;;
7669;SDS011;3877;42.562;27.636;2024-01-25T13:58:54;18.20;;;7.40;;
7669;SDS011;3877;42.562;27.636;2024-01-25T14:01:22;16.37;;;6.17;;
7669;SDS011;3877;42.562;27.636;2024-01-25T14:03:49;27.97;;;8.13;;
7669;SDS011;3877;42.562;27.636;2024-01-25T14:06:18;14.00;;;6.30;;
7669;SDS011;3877;42.562;27.636;2024-01-25T14:08:46;16.73;;;7.33;;
7669;SDS011;3877;42.562;27.636;2024-01-25T14:11:13;29.37;;;9.30;;
7669;SDS011;3877;42.562;27.636;2024-01-25T14:13:40;21.33;;;9.47;;
7669;SDS011;3877;42.562;27.636;2024-01-25T14:16:08;11.37;;;6.30;;
7669;SDS011;3877;42.562;27.636;2024-01-25T14:18:42;17.17;;;8.43;;
7669;SDS011;3877;42.562;27.636;2024-01-25T14:21:10;15.20;;;6.40;;
7669;SDS011;3877;42.562;27.636;2024-01-25T14:23:39;13.17;;;5.83;;
7669;SDS011;3877;42.562;27.636;2024-01-25T14:26:07;24.20;;;9.67;;
7669;SDS011;3877;42.562;27.636;2024-01-25T14:28:34;14.00;;;7.07;;
7669;SDS011;3877;42.562;27.636;2024-01-25T14:31:01;12.93;;;7.17;;
7669;SDS011;3877;42.562;27.636;2024-01-25T14:33:29;18.13;;;8.53;;
7669;SDS011;3877;42.562;27.636;2024-01-25T14:35:57;14.57;;;8.10;;
7669;SDS011;3877;42.562;27.636;2024-01-25T14:38:24;12.13;;;4.90;;
7669;SDS011;3877;42.562;27.636;2024-01-25T14:40:53;12.77;;;5.20;;
7669;SDS011;3877;42.562;27.636;2024-01-25T14:43:21;15.10;;;4.60;;
7669;SDS011;3877;42.562;27.636;2024-01-25T14:45:48;14.77;;;4.30;;
7669;SDS011;3877;42.562;27.636;2024-01-25T14:48:15;13.10;;;4.20;;